sensor_id;sensor_type;location;lat;lon;timestamp;P1;durP1;ratioP1;P2;durP2;ratioP2
20065;SDS011;10193;48.884;9.182;2023-04-15T00:00:06;3.42;;;2.70;;
20065;SDS011;10193;48.884;9.182;2023-04-15T00:02:34;3.33;;;2.83;;
20065;SDS011;10193;48.884;9.182;2023-04-15T00:05:03;3.10;;;2.80;;
20065;SDS011;10193;48.884;9.182;2023-04-15T00:07:30;3.33;;;2.97;;
20065;SDS011;10193;48.884;9.182;2023-04-15T00:09:57;3.10;;;2.75;;
20065;SDS011;10193;48.884;9.182;2023-04-15T00:12:24;3.13;;;2.83;;
20065;SDS011;10193;48.884;9.182;2023-04-15T00:14:52;4.05;;;3.03;;
20065;SDS011;10193;48.884;9.182;2023-04-15T00:17:21;4.22;;;2.80;;
20065;SDS011;10193;48.884;9.182;2023-04-15T00:19:47;3.45;;;2.90;;
20065;SDS011;10193;48.884;9.182;2023-04-15T00:22:15;3.22;;;2.90;;
20065;SDS011;10193;48.884;9.182;2023-04-15T00:24:42;3.67;;;2.95;;
20065;SDS011;10193;48.884;9.182;2023-04-15T00:27:09;4.07;;;3.03;;
20065;SDS011;10193;48.884;9.182;2023-04-15T00:29:35;4.25;;;3.20;;
20065;SDS011;10193;48.884;9.182;2023-04-15T00:32:02;3.85;;;3.20;;
20065;SDS011;10193;48.884;9.182;2023-04-15T00:34:29;4.45;;;2.90;;
20065;SDS011;10193;48.884;9.182;2023-04-15T00:36:55;3.50;;;2.70;;
20065;SDS011;10193;48.884;9.182;2023-04-15T00:39:23;3.20;;;2.90;;
20065;SDS011;10193;48.884;9.182;2023-04-15T00:41:50;4.55;;;3.25;;
20065;SDS011;10193;48.884;9.182;2023-04-15T00:44:18;3.08;;;2.78;;
20065;SDS011;10193;48.884;9.182;2023-04-15T00:46:45;4.18;;;2.88;;
20065;SDS011;10193;48.884;9.182;2023-04-15T00:49:13;4.28;;;3.00;;
20065;SDS011;10193;48.884;9.182;2023-04-15T00:51:39;4.23;;;2.90;;
20065;SDS011;10193;48.884;9.182;2023-04-15T00:54:06;4.27;;;3.00;;
20065;SDS011;10193;48.884;9.182;2023-04-15T00:56:35;5.60;;;3.08;;
20065;SDS011;10193;48.884;9.182;2023-04-15T00:59:03;3.53;;;2.90;;
20065;SDS011;10193;48.884;9.182;2023-04-15T01:01:32;3.88;;;2.90;;
20065;SDS011;10193;48.884;9.182;2023-04-15T01:03:59;3.10;;;2.72;;
20065;SDS011;10193;48.884;9.182;2023-04-15T01:06:26;3.40;;;3.10;;
20065;SDS011;10193;48.884;9.182;2023-04-15T01:08:53;4.13;;;2.90;;
20065;SDS011;10193;48.884;9.182;2023-04-15T01:11:20;4.23;;;3.10;;
20065;SDS011;10193;48.884;9.182;2023-04-15T01:13:49;3.20;;;2.90;;
20065;SDS011;10193;48.884;9.182;2023-04-15T01:16:16;4.10;;;3.03;;
20065;SDS011;10193;48.884;9.182;2023-04-15T01:18:43;3.70;;;3.00;;
20065;SDS011;10193;48.884;9.182;2023-04-15T01:21:11;3.60;;;3.00;;
20065;SDS011;10193;48.884;9.182;2023-04-15T01:23:38;3.90;;;3.03;;
20065;SDS011;10193;48.884;9.182;2023-04-15T01:26:06;4.70;;;3.10;;
20065;SDS011;10193;48.884;9.182;2023-04-15T01:28:34;4.10;;;2.83;;
20065;SDS011;10193;48.884;9.182;2023-04-15T01:31:05;2.97;;;2.67;;
20065;SDS011;10193;48.884;9.182;2023-04-15T01:33:32;3.13;;;2.80;;
20065;SDS011;10193;48.884;9.182;2023-04-15T01:35:59;3.47;;;3.15;;
20065;SDS011;10193;48.884;9.182;2023-04-15T01:38:26;3.80;;;3.03;;
20065;SDS011;10193;48.884;9.182;2023-04-15T01:40:53;3.87;;;3.40;;
20065;SDS011;10193;48.884;9.182;2023-04-15T01:43:21;3.27;;;3.00;;
20065;SDS011;10193;48.884;9.182;2023-04-15T01:45:48;5.13;;;3.00;;
20065;SDS011;10193;48.884;9.182;2023-04-15T01:48:15;3.93;;;3.03;;
20065;SDS011;10193;48.884;9.182;2023-04-15T01:50:42;3.28;;;2.83;;
20065;SDS011;10193;48.884;9.182;2023-04-15T01:53:08;3.07;;;2.77;;
20065;SDS011;10193;48.884;9.182;2023-04-15T01:55:35;3.60;;;3.10;;
20065;SDS011;10193;48.884;9.182;2023-04-15T01:58:02;3.40;;;2.60;;
20065;SDS011;10193;48.884;9.182;2023-04-15T02:00:30;4.90;;;3.03;;
20065;SDS011;10193;48.884;9.182;2023-04-15T02:02:57;3.70;;;3.10;;
20065;SDS011;10193;48.884;9.182;2023-04-15T02:05:24;3.97;;;2.70;;
20065;SDS011;10193;48.884;9.182;2023-04-15T02:07:50;3.90;;;2.87;;
20065;SDS011;10193;48.884;9.182;2023-04-15T02:10:17;3.17;;;2.87;;
20065;SDS011;10193;48.884;9.182;2023-04-15T02:12:44;2.93;;;2.63;;
20065;SDS011;10193;48.884;9.182;2023-04-15T02:15:11;4.73;;;2.90;;
20065;SDS011;10193;48.884;9.182;2023-04-15T02:17:39;3.00;;;2.63;;
20065;SDS011;10193;48.884;9.182;2023-04-15T02:20:10;3.10;;;2.60;;
20065;SDS011;10193;48.884;9.182;2023-04-15T02:22:37;3.97;;;2.60;;
20065;SDS011;10193;48.884;9.182;2023-04-15T02:25:04;4.60;;;2.90;;
20065;SDS011;10193;48.884;9.182;2023-04-15T02:27:31;3.37;;;2.93;;
20065;SDS011;10193;48.884;9.182;2023-04-15T02:29:58;3.30;;;2.90;;
20065;SDS011;10193;48.884;9.182;2023-04-15T02:32:25;3.13;;;2.87;;
20065;SDS011;10193;48.884;9.182;2023-04-15T02:34:54;3.50;;;2.87;;
20065;SDS011;10193;48.884;9.182;2023-04-15T02:37:21;3.07;;;2.80;;
20065;SDS011;10193;48.884;9.182;2023-04-15T02:39:48;3.30;;;3.00;;
20065;SDS011;10193;48.884;9.182;2023-04-15T02:42:15;3.47;;;2.87;;
20065;SDS011;10193;48.884;9.182;2023-04-15T02:44:42;3.80;;;3.30;;
20065;SDS011;10193;48.884;9.182;2023-04-15T02:47:08;3.60;;;3.10;;
20065;SDS011;10193;48.884;9.182;2023-04-15T02:49:35;4.80;;;2.80;;
20065;SDS011;10193;48.884;9.182;2023-04-15T02:52:04;3.37;;;2.60;;
20065;SDS011;10193;48.884;9.182;2023-04-15T02:54:31;3.10;;;2.80;;
20065;SDS011;10193;48.884;9.182;2023-04-15T02:56:58;2.77;;;2.57;;
20065;SDS011;10193;48.884;9.182;2023-04-15T02:59:25;3.13;;;2.80;;
20065;SDS011;10193;48.884;9.182;2023-04-15T03:01:51;3.13;;;2.83;;
20065;SDS011;10193;48.884;9.182;2023-04-15T03:04:19;2.97;;;2.70;;
20065;SDS011;10193;48.884;9.182;2023-04-15T03:06:45;2.77;;;2.53;;
20065;SDS011;10193;48.884;9.182;2023-04-15T03:09:13;3.23;;;2.80;;
20065;SDS011;10193;48.884;9.182;2023-04-15T03:11:40;4.57;;;3.13;;
20065;SDS011;10193;48.884;9.182;2023-04-15T03:14:07;3.00;;;2.70;;
20065;SDS011;10193;48.884;9.182;2023-04-15T03:16:33;3.17;;;2.77;;
20065;SDS011;10193;48.884;9.182;2023-04-15T03:19:00;3.20;;;2.90;;
20065;SDS011;10193;48.884;9.182;2023-04-15T03:21:27;4.30;;;2.93;;
20065;SDS011;10193;48.884;9.182;2023-04-15T03:23:53;3.27;;;2.80;;
20065;SDS011;10193;48.884;9.182;2023-04-15T03:26:25;3.80;;;3.03;;
20065;SDS011;10193;48.884;9.182;2023-04-15T03:28:53;4.57;;;2.83;;
20065;SDS011;10193;48.884;9.182;2023-04-15T03:31:20;3.20;;;2.90;;
20065;SDS011;10193;48.884;9.182;2023-04-15T03:33:46;2.93;;;2.70;;
20065;SDS011;10193;48.884;9.182;2023-04-15T03:36:13;3.23;;;2.93;;
20065;SDS011;10193;48.884;9.182;2023-04-15T03:38:40;3.87;;;3.00;;
20065;SDS011;10193;48.884;9.182;2023-04-15T03:41:07;5.00;;;3.10;;
20065;SDS011;10193;48.884;9.182;2023-04-15T03:43:35;4.50;;;2.93;;
20065;SDS011;10193;48.884;9.182;2023-04-15T03:46:02;3.83;;;2.80;;
20065;SDS011;10193;48.884;9.182;2023-04-15T03:48:29;5.17;;;2.80;;
20065;SDS011;10193;48.884;9.182;2023-04-15T03:50:56;3.77;;;3.00;;
20065;SDS011;10193;48.884;9.182;2023-04-15T03:53:23;3.67;;;2.80;;
20065;SDS011;10193;48.884;9.182;2023-04-15T03:55:49;3.40;;;3.10;;
20065;SDS011;10193;48.884;9.182;2023-04-15T03:58:16;3.30;;;2.90;;
20065;SDS011;10193;48.884;9.182;2023-04-15T04:00:44;3.37;;;2.77;;
20065;SDS011;10193;48.884;9.182;2023-04-15T04:03:11;3.37;;;3.07;;
20065;SDS011;10193;48.884;9.182;2023-04-15T04:05:37;3.20;;;2.83;;
20065;SDS011;10193;48.884;9.182;2023-04-15T04:08:05;3.40;;;2.80;;
20065;SDS011;10193;48.884;9.182;2023-04-15T04:10:32;4.43;;;2.90;;
20065;SDS011;10193;48.884;9.182;2023-04-15T04:12:59;3.22;;;2.90;;
20065;SDS011;10193;48.884;9.182;2023-04-15T04:15:26;3.57;;;2.93;;
20065;SDS011;10193;48.884;9.182;2023-04-15T04:17:54;4.97;;;2.97;;
20065;SDS011;10193;48.884;9.182;2023-04-15T04:20:21;3.60;;;2.90;;
20065;SDS011;10193;48.884;9.182;2023-04-15T04:22:47;4.07;;;3.10;;
20065;SDS011;10193;48.884;9.182;2023-04-15T04:25:14;4.33;;;2.97;;
20065;SDS011;10193;48.884;9.182;2023-04-15T04:27:41;3.67;;;2.97;;
20065;SDS011;10193;48.884;9.182;2023-04-15T04:30:09;4.10;;;3.20;;
20065;SDS011;10193;48.884;9.182;2023-04-15T04:32:36;4.23;;;2.90;;
20065;SDS011;10193;48.884;9.182;2023-04-15T04:35:04;3.20;;;2.90;;
20065;SDS011;10193;48.884;9.182;2023-04-15T04:37:32;3.77;;;3.03;;
20065;SDS011;10193;48.884;9.182;2023-04-15T04:39:58;4.50;;;2.87;;
20065;SDS011;10193;48.884;9.182;2023-04-15T04:42:25;4.03;;;2.90;;
20065;SDS011;10193;48.884;9.182;2023-04-15T04:44:52;3.43;;;3.13;;
20065;SDS011;10193;48.884;9.182;2023-04-15T04:47:19;3.20;;;2.87;;
20065;SDS011;10193;48.884;9.182;2023-04-15T04:49:45;3.50;;;3.13;;
20065;SDS011;10193;48.884;9.182;2023-04-15T04:52:13;3.17;;;2.80;;
20065;SDS011;10193;48.884;9.182;2023-04-15T04:54:40;3.67;;;2.93;;
20065;SDS011;10193;48.884;9.182;2023-04-15T04:57:07;3.47;;;3.10;;
20065;SDS011;10193;48.884;9.182;2023-04-15T04:59:34;3.30;;;2.83;;
20065;SDS011;10193;48.884;9.182;2023-04-15T05:02:00;3.40;;;3.07;;
20065;SDS011;10193;48.884;9.182;2023-04-15T05:04:27;3.77;;;3.03;;
20065;SDS011;10193;48.884;9.182;2023-04-15T05:06:55;4.10;;;3.00;;
20065;SDS011;10193;48.884;9.182;2023-04-15T05:09:24;3.27;;;2.97;;
20065;SDS011;10193;48.884;9.182;2023-04-15T05:11:51;3.37;;;3.00;;
20065;SDS011;10193;48.884;9.182;2023-04-15T05:14:17;3.87;;;3.47;;
20065;SDS011;10193;48.884;9.182;2023-04-15T05:16:44;4.83;;;2.90;;
20065;SDS011;10193;48.884;9.182;2023-04-15T05:19:11;3.33;;;3.00;;
20065;SDS011;10193;48.884;9.182;2023-04-15T05:21:37;3.93;;;3.10;;
20065;SDS011;10193;48.884;9.182;2023-04-15T05:24:04;4.20;;;3.03;;
20065;SDS011;10193;48.884;9.182;2023-04-15T05:26:32;3.33;;;2.93;;
20065;SDS011;10193;48.884;9.182;2023-04-15T05:28:59;3.83;;;3.37;;
20065;SDS011;10193;48.884;9.182;2023-04-15T05:31:26;3.73;;;3.33;;
20065;SDS011;10193;48.884;9.182;2023-04-15T05:33:53;4.40;;;3.07;;
20065;SDS011;10193;48.884;9.182;2023-04-15T05:36:20;3.57;;;3.03;;
20065;SDS011;10193;48.884;9.182;2023-04-15T05:38:46;4.53;;;3.50;;
20065;SDS011;10193;48.884;9.182;2023-04-15T05:41:13;4.27;;;3.33;;
20065;SDS011;10193;48.884;9.182;2023-04-15T05:43:42;3.90;;;3.50;;
20065;SDS011;10193;48.884;9.182;2023-04-15T05:46:08;4.80;;;3.88;;
20065;SDS011;10193;48.884;9.182;2023-04-15T05:48:35;5.03;;;3.58;;
20065;SDS011;10193;48.884;9.182;2023-04-15T05:51:02;4.32;;;3.72;;
20065;SDS011;10193;48.884;9.182;2023-04-15T05:53:29;4.35;;;3.95;;
20065;SDS011;10193;48.884;9.182;2023-04-15T05:55:55;5.85;;;4.22;;
20065;SDS011;10193;48.884;9.182;2023-04-15T05:58:22;5.68;;;4.25;;
20065;SDS011;10193;48.884;9.182;2023-04-15T06:00:50;4.30;;;3.83;;
20065;SDS011;10193;48.884;9.182;2023-04-15T06:03:17;4.22;;;3.83;;
20065;SDS011;10193;48.884;9.182;2023-04-15T06:05:44;5.75;;;3.67;;
20065;SDS011;10193;48.884;9.182;2023-04-15T06:08:10;4.03;;;3.63;;
20065;SDS011;10193;48.884;9.182;2023-04-15T06:10:37;4.88;;;4.28;;
20065;SDS011;10193;48.884;9.182;2023-04-15T06:13:04;4.45;;;3.80;;
20065;SDS011;10193;48.884;9.182;2023-04-15T06:15:31;5.20;;;3.83;;
20065;SDS011;10193;48.884;9.182;2023-04-15T06:17:59;4.75;;;3.92;;
20065;SDS011;10193;48.884;9.182;2023-04-15T06:20:26;4.93;;;4.13;;
20065;SDS011;10193;48.884;9.182;2023-04-15T06:22:52;6.22;;;4.03;;
20065;SDS011;10193;48.884;9.182;2023-04-15T06:25:19;5.18;;;3.90;;
20065;SDS011;10193;48.884;9.182;2023-04-15T06:27:46;5.28;;;4.05;;
20065;SDS011;10193;48.884;9.182;2023-04-15T06:30:13;3.88;;;3.58;;
20065;SDS011;10193;48.884;9.182;2023-04-15T06:32:40;5.55;;;3.75;;
20065;SDS011;10193;48.884;9.182;2023-04-15T06:35:08;5.63;;;3.70;;
20065;SDS011;10193;48.884;9.182;2023-04-15T06:37:35;5.65;;;3.53;;
20065;SDS011;10193;48.884;9.182;2023-04-15T06:40:02;4.60;;;3.92;;
20065;SDS011;10193;48.884;9.182;2023-04-15T06:42:29;3.60;;;3.22;;
20065;SDS011;10193;48.884;9.182;2023-04-15T06:44:56;3.67;;;3.38;;
20065;SDS011;10193;48.884;9.182;2023-04-15T06:47:23;4.57;;;3.70;;
20065;SDS011;10193;48.884;9.182;2023-04-15T06:49:50;4.45;;;3.60;;
20065;SDS011;10193;48.884;9.182;2023-04-15T06:52:18;3.80;;;3.40;;
20065;SDS011;10193;48.884;9.182;2023-04-15T06:54:45;4.45;;;3.47;;
20065;SDS011;10193;48.884;9.182;2023-04-15T06:57:11;3.90;;;3.25;;
20065;SDS011;10193;48.884;9.182;2023-04-15T06:59:38;3.90;;;3.33;;
20065;SDS011;10193;48.884;9.182;2023-04-15T07:02:05;4.38;;;3.40;;
20065;SDS011;10193;48.884;9.182;2023-04-15T07:04:37;4.53;;;3.33;;
20065;SDS011;10193;48.884;9.182;2023-04-15T07:07:04;4.47;;;3.13;;
20065;SDS011;10193;48.884;9.182;2023-04-15T07:09:31;3.35;;;3.05;;
20065;SDS011;10193;48.884;9.182;2023-04-15T07:11:58;3.97;;;3.00;;
20065;SDS011;10193;48.884;9.182;2023-04-15T07:14:25;3.70;;;3.22;;
20065;SDS011;10193;48.884;9.182;2023-04-15T07:16:51;3.47;;;3.17;;
20065;SDS011;10193;48.884;9.182;2023-04-15T07:19:18;4.32;;;3.20;;
20065;SDS011;10193;48.884;9.182;2023-04-15T07:21:45;3.60;;;2.95;;
20065;SDS011;10193;48.884;9.182;2023-04-15T07:24:12;3.40;;;2.88;;
20065;SDS011;10193;48.884;9.182;2023-04-15T07:26:42;3.88;;;3.08;;
20065;SDS011;10193;48.884;9.182;2023-04-15T07:29:09;4.00;;;3.25;;
20065;SDS011;10193;48.884;9.182;2023-04-15T07:31:36;4.38;;;3.70;;
20065;SDS011;10193;48.884;9.182;2023-04-15T07:34:03;3.88;;;3.28;;
20065;SDS011;10193;48.884;9.182;2023-04-15T07:36:29;3.72;;;3.38;;
20065;SDS011;10193;48.884;9.182;2023-04-15T07:38:56;3.63;;;3.33;;
20065;SDS011;10193;48.884;9.182;2023-04-15T07:41:23;5.93;;;3.70;;
20065;SDS011;10193;48.884;9.182;2023-04-15T07:43:51;3.80;;;3.00;;
20065;SDS011;10193;48.884;9.182;2023-04-15T07:46:17;4.35;;;3.28;;
20065;SDS011;10193;48.884;9.182;2023-04-15T07:48:44;3.42;;;3.00;;
20065;SDS011;10193;48.884;9.182;2023-04-15T07:51:11;3.85;;;3.00;;
20065;SDS011;10193;48.884;9.182;2023-04-15T07:53:37;4.20;;;2.85;;
20065;SDS011;10193;48.884;9.182;2023-04-15T07:56:04;3.72;;;3.25;;
20065;SDS011;10193;48.884;9.182;2023-04-15T07:58:31;3.80;;;3.10;;
20065;SDS011;10193;48.884;9.182;2023-04-15T08:00:59;6.47;;;3.10;;
20065;SDS011;10193;48.884;9.182;2023-04-15T08:03:26;3.45;;;3.15;;
20065;SDS011;10193;48.884;9.182;2023-04-15T08:05:53;4.10;;;3.15;;
20065;SDS011;10193;48.884;9.182;2023-04-15T08:08:20;3.65;;;3.03;;
20065;SDS011;10193;48.884;9.182;2023-04-15T08:10:46;3.17;;;2.88;;
20065;SDS011;10193;48.884;9.182;2023-04-15T08:13:13;3.85;;;3.00;;
20065;SDS011;10193;48.884;9.182;2023-04-15T08:15:40;3.33;;;2.95;;
20065;SDS011;10193;48.884;9.182;2023-04-15T08:18:08;3.67;;;2.95;;
20065;SDS011;10193;48.884;9.182;2023-04-15T08:20:35;3.88;;;3.20;;
20065;SDS011;10193;48.884;9.182;2023-04-15T08:23:02;4.30;;;3.20;;
20065;SDS011;10193;48.884;9.182;2023-04-15T08:25:29;3.80;;;3.08;;
20065;SDS011;10193;48.884;9.182;2023-04-15T08:27:56;4.03;;;3.03;;
20065;SDS011;10193;48.884;9.182;2023-04-15T08:30:23;3.40;;;3.10;;
20065;SDS011;10193;48.884;9.182;2023-04-15T08:32:49;2.53;;;2.30;;
20065;SDS011;10193;48.884;9.182;2023-04-15T08:35:17;2.30;;;2.10;;
20065;SDS011;10193;48.884;9.182;2023-04-15T08:37:44;2.92;;;2.08;;
20065;SDS011;10193;48.884;9.182;2023-04-15T08:40:11;3.13;;;2.20;;
20065;SDS011;10193;48.884;9.182;2023-04-15T08:42:40;3.45;;;2.50;;
20065;SDS011;10193;48.884;9.182;2023-04-15T08:45:09;2.83;;;2.30;;
20065;SDS011;10193;48.884;9.182;2023-04-15T08:47:35;2.92;;;2.30;;
20065;SDS011;10193;48.884;9.182;2023-04-15T08:50:04;2.78;;;2.22;;
20065;SDS011;10193;48.884;9.182;2023-04-15T08:52:35;2.75;;;2.38;;
20065;SDS011;10193;48.884;9.182;2023-04-15T08:55:02;2.33;;;2.03;;
20065;SDS011;10193;48.884;9.182;2023-04-15T08:57:30;2.88;;;2.10;;
20065;SDS011;10193;48.884;9.182;2023-04-15T08:59:58;2.78;;;2.35;;
20065;SDS011;10193;48.884;9.182;2023-04-15T09:02:27;3.20;;;2.47;;
20065;SDS011;10193;48.884;9.182;2023-04-15T09:04:54;2.50;;;2.30;;
20065;SDS011;10193;48.884;9.182;2023-04-15T09:07:21;2.83;;;2.47;;
20065;SDS011;10193;48.884;9.182;2023-04-15T09:09:49;3.97;;;2.78;;
20065;SDS011;10193;48.884;9.182;2023-04-15T09:12:16;2.75;;;2.55;;
20065;SDS011;10193;48.884;9.182;2023-04-15T09:14:44;3.78;;;2.65;;
20065;SDS011;10193;48.884;9.182;2023-04-15T09:17:11;3.05;;;2.50;;
20065;SDS011;10193;48.884;9.182;2023-04-15T09:19:37;2.47;;;2.28;;
20065;SDS011;10193;48.884;9.182;2023-04-15T09:22:04;2.35;;;2.15;;
20065;SDS011;10193;48.884;9.182;2023-04-15T09:24:36;2.63;;;2.33;;
20065;SDS011;10193;48.884;9.182;2023-04-15T09:27:05;2.58;;;2.38;;
20065;SDS011;10193;48.884;9.182;2023-04-15T09:29:32;2.60;;;2.40;;
20065;SDS011;10193;48.884;9.182;2023-04-15T09:32:08;3.40;;;2.60;;
20065;SDS011;10193;48.884;9.182;2023-04-15T09:34:36;2.47;;;2.28;;
20065;SDS011;10193;48.884;9.182;2023-04-15T09:37:03;2.60;;;2.40;;
20065;SDS011;10193;48.884;9.182;2023-04-15T09:39:43;3.05;;;2.63;;
20065;SDS011;10193;48.884;9.182;2023-04-15T09:42:13;3.10;;;2.80;;
20065;SDS011;10193;48.884;9.182;2023-04-15T09:44:41;2.90;;;2.60;;
20065;SDS011;10193;48.884;9.182;2023-04-15T09:47:08;3.35;;;2.58;;
20065;SDS011;10193;48.884;9.182;2023-04-15T09:49:35;2.63;;;2.40;;
20065;SDS011;10193;48.884;9.182;2023-04-15T09:52:01;2.63;;;2.42;;
20065;SDS011;10193;48.884;9.182;2023-04-15T09:54:32;2.50;;;2.30;;
20065;SDS011;10193;48.884;9.182;2023-04-15T09:57:03;2.88;;;2.60;;
20065;SDS011;10193;48.884;9.182;2023-04-15T09:59:32;4.07;;;2.50;;
20065;SDS011;10193;48.884;9.182;2023-04-15T10:01:59;2.75;;;2.50;;
20065;SDS011;10193;48.884;9.182;2023-04-15T10:04:29;3.10;;;2.60;;
20065;SDS011;10193;48.884;9.182;2023-04-15T10:06:57;2.63;;;2.42;;
20065;SDS011;10193;48.884;9.182;2023-04-15T10:09:26;2.50;;;2.30;;
20065;SDS011;10193;48.884;9.182;2023-04-15T10:11:52;2.08;;;1.90;;
20065;SDS011;10193;48.884;9.182;2023-04-15T10:14:20;3.10;;;2.33;;
20065;SDS011;10193;48.884;9.182;2023-04-15T10:16:48;2.50;;;2.30;;
20065;SDS011;10193;48.884;9.182;2023-04-15T10:19:16;3.83;;;1.92;;
20065;SDS011;10193;48.884;9.182;2023-04-15T10:21:46;2.42;;;2.13;;
20065;SDS011;10193;48.884;9.182;2023-04-15T10:24:13;2.28;;;2.00;;
20065;SDS011;10193;48.884;9.182;2023-04-15T10:26:40;2.35;;;2.10;;
20065;SDS011;10193;48.884;9.182;2023-04-15T10:29:08;2.65;;;2.15;;
20065;SDS011;10193;48.884;9.182;2023-04-15T10:31:35;2.72;;;2.17;;
20065;SDS011;10193;48.884;9.182;2023-04-15T10:34:04;2.72;;;2.10;;
20065;SDS011;10193;48.884;9.182;2023-04-15T10:36:32;2.22;;;2.00;;
20065;SDS011;10193;48.884;9.182;2023-04-15T10:38:58;2.33;;;2.10;;
20065;SDS011;10193;48.884;9.182;2023-04-15T10:41:25;2.83;;;2.53;;
20065;SDS011;10193;48.884;9.182;2023-04-15T10:43:55;3.15;;;2.35;;
20065;SDS011;10193;48.884;9.182;2023-04-15T10:46:33;2.50;;;2.30;;
20065;SDS011;10193;48.884;9.182;2023-04-15T10:49:07;2.13;;;2.00;;
20065;SDS011;10193;48.884;9.182;2023-04-15T10:51:36;3.60;;;2.78;;
20065;SDS011;10193;48.884;9.182;2023-04-15T10:54:07;2.83;;;2.60;;
20065;SDS011;10193;48.884;9.182;2023-04-15T10:56:40;2.40;;;2.20;;
20065;SDS011;10193;48.884;9.182;2023-04-15T10:59:07;2.90;;;2.60;;
20065;SDS011;10193;48.884;9.182;2023-04-15T11:01:50;2.55;;;2.35;;
20065;SDS011;10193;48.884;9.182;2023-04-15T11:07:35;2.95;;;2.65;;
20065;SDS011;10193;48.884;9.182;2023-04-15T11:10:06;3.25;;;2.70;;
20065;SDS011;10193;48.884;9.182;2023-04-15T11:13:16;2.90;;;2.60;;
20065;SDS011;10193;48.884;9.182;2023-04-15T11:15:46;2.97;;;2.75;;
20065;SDS011;10193;48.884;9.182;2023-04-15T11:18:14;2.97;;;2.78;;
20065;SDS011;10193;48.884;9.182;2023-04-15T11:20:44;3.10;;;2.80;;
20065;SDS011;10193;48.884;9.182;2023-04-15T11:23:13;3.17;;;2.75;;
20065;SDS011;10193;48.884;9.182;2023-04-15T11:25:41;3.00;;;2.70;;
20065;SDS011;10193;48.884;9.182;2023-04-15T11:28:09;2.78;;;2.58;;
20065;SDS011;10193;48.884;9.182;2023-04-15T11:30:36;3.35;;;2.80;;
20065;SDS011;10193;48.884;9.182;2023-04-15T11:33:04;2.80;;;2.60;;
20065;SDS011;10193;48.884;9.182;2023-04-15T11:35:32;3.65;;;2.70;;
20065;SDS011;10193;48.884;9.182;2023-04-15T11:38:02;3.30;;;2.50;;
20065;SDS011;10193;48.884;9.182;2023-04-15T11:40:30;3.22;;;2.30;;
20065;SDS011;10193;48.884;9.182;2023-04-15T11:43:03;2.60;;;2.00;;
20065;SDS011;10193;48.884;9.182;2023-04-15T11:45:31;3.10;;;1.98;;
20065;SDS011;10193;48.884;9.182;2023-04-15T11:48:03;2.53;;;2.15;;
20065;SDS011;10193;48.884;9.182;2023-04-15T11:50:31;1.90;;;1.80;;
20065;SDS011;10193;48.884;9.182;2023-04-15T11:52:59;2.33;;;1.90;;
20065;SDS011;10193;48.884;9.182;2023-04-15T11:55:28;2.47;;;1.80;;
20065;SDS011;10193;48.884;9.182;2023-04-15T11:58:07;1.88;;;1.77;;
20065;SDS011;10193;48.884;9.182;2023-04-15T12:00:35;2.10;;;1.90;;
20065;SDS011;10193;48.884;9.182;2023-04-15T12:08:50;2.40;;;2.20;;
20065;SDS011;10193;48.884;9.182;2023-04-15T12:11:20;2.22;;;2.10;;
20065;SDS011;10193;48.884;9.182;2023-04-15T12:13:53;2.17;;;2.00;;
20065;SDS011;10193;48.884;9.182;2023-04-15T12:16:21;3.53;;;2.05;;
20065;SDS011;10193;48.884;9.182;2023-04-15T12:18:49;2.50;;;2.30;;
20065;SDS011;10193;48.884;9.182;2023-04-15T12:21:17;3.22;;;2.63;;
20065;SDS011;10193;48.884;9.182;2023-04-15T12:23:48;2.55;;;2.35;;
20065;SDS011;10193;48.884;9.182;2023-04-15T12:26:15;3.20;;;2.50;;
20065;SDS011;10193;48.884;9.182;2023-04-15T12:28:43;2.65;;;2.13;;
20065;SDS011;10193;48.884;9.182;2023-04-15T12:31:10;2.63;;;2.15;;
20065;SDS011;10193;48.884;9.182;2023-04-15T12:33:38;2.30;;;2.10;;
20065;SDS011;10193;48.884;9.182;2023-04-15T12:36:05;1.90;;;1.70;;
20065;SDS011;10193;48.884;9.182;2023-04-15T12:38:32;1.80;;;1.70;;
20065;SDS011;10193;48.884;9.182;2023-04-15T12:40:59;1.83;;;1.52;;
20065;SDS011;10193;48.884;9.182;2023-04-15T12:43:25;1.88;;;1.58;;
20065;SDS011;10193;48.884;9.182;2023-04-15T12:45:53;1.40;;;1.30;;
20065;SDS011;10193;48.884;9.182;2023-04-15T12:48:20;1.65;;;1.40;;
20065;SDS011;10193;48.884;9.182;2023-04-15T12:50:47;1.65;;;1.55;;
20065;SDS011;10193;48.884;9.182;2023-04-15T12:53:14;1.60;;;1.50;;
20065;SDS011;10193;48.884;9.182;2023-04-15T12:55:40;2.10;;;1.60;;
20065;SDS011;10193;48.884;9.182;2023-04-15T12:58:07;2.15;;;1.70;;
20065;SDS011;10193;48.884;9.182;2023-04-15T13:00:35;1.60;;;1.50;;
20065;SDS011;10193;48.884;9.182;2023-04-15T13:03:04;1.60;;;1.50;;
20065;SDS011;10193;48.884;9.182;2023-04-15T13:05:30;3.63;;;1.77;;
20065;SDS011;10193;48.884;9.182;2023-04-15T13:07:57;2.10;;;1.65;;
20065;SDS011;10193;48.884;9.182;2023-04-15T13:10:24;2.10;;;1.67;;
20065;SDS011;10193;48.884;9.182;2023-04-15T13:12:52;2.42;;;1.75;;
20065;SDS011;10193;48.884;9.182;2023-04-15T13:15:20;2.22;;;1.45;;
20065;SDS011;10193;48.884;9.182;2023-04-15T13:17:47;1.70;;;1.23;;
20065;SDS011;10193;48.884;9.182;2023-04-15T13:20:16;2.10;;;1.40;;
20065;SDS011;10193;48.884;9.182;2023-04-15T13:22:42;1.50;;;1.40;;
20065;SDS011;10193;48.884;9.182;2023-04-15T13:25:09;1.30;;;1.20;;
20065;SDS011;10193;48.884;9.182;2023-04-15T13:27:36;1.25;;;1.15;;
20065;SDS011;10193;48.884;9.182;2023-04-15T13:30:03;1.80;;;1.05;;
20065;SDS011;10193;48.884;9.182;2023-04-15T13:32:30;0.95;;;0.95;;
20065;SDS011;10193;48.884;9.182;2023-04-15T13:34:57;0.90;;;0.80;;
20065;SDS011;10193;48.884;9.182;2023-04-15T13:37:26;0.80;;;0.73;;
20065;SDS011;10193;48.884;9.182;2023-04-15T13:39:53;0.70;;;0.70;;
20065;SDS011;10193;48.884;9.182;2023-04-15T13:42:20;1.00;;;0.90;;
20065;SDS011;10193;48.884;9.182;2023-04-15T13:44:48;0.75;;;0.75;;
20065;SDS011;10193;48.884;9.182;2023-04-15T13:47:15;1.10;;;1.00;;
20065;SDS011;10193;48.884;9.182;2023-04-15T13:49:41;0.70;;;0.70;;
20065;SDS011;10193;48.884;9.182;2023-04-15T13:52:09;0.80;;;0.80;;
20065;SDS011;10193;48.884;9.182;2023-04-15T13:54:38;1.00;;;0.85;;
20065;SDS011;10193;48.884;9.182;2023-04-15T13:57:04;2.15;;;0.60;;
20065;SDS011;10193;48.884;9.182;2023-04-15T13:59:31;1.55;;;0.80;;
20065;SDS011;10193;48.884;9.182;2023-04-15T14:01:58;0.50;;;0.50;;
20065;SDS011;10193;48.884;9.182;2023-04-15T14:04:25;0.70;;;0.70;;
20065;SDS011;10193;48.884;9.182;2023-04-15T14:06:52;1.45;;;0.70;;
20065;SDS011;10193;48.884;9.182;2023-04-15T14:09:18;1.08;;;0.70;;
20065;SDS011;10193;48.884;9.182;2023-04-15T14:11:47;1.30;;;0.90;;
20065;SDS011;10193;48.884;9.182;2023-04-15T14:14:14;0.77;;;0.70;;
20065;SDS011;10193;48.884;9.182;2023-04-15T14:16:41;0.80;;;0.80;;
20065;SDS011;10193;48.884;9.182;2023-04-15T14:19:07;1.33;;;0.90;;
20065;SDS011;10193;48.884;9.182;2023-04-15T14:21:34;1.23;;;1.13;;
20065;SDS011;10193;48.884;9.182;2023-04-15T14:24:01;1.00;;;0.77;;
20065;SDS011;10193;48.884;9.182;2023-04-15T14:26:27;0.57;;;0.57;;
20065;SDS011;10193;48.884;9.182;2023-04-15T14:28:55;1.17;;;0.88;;
20065;SDS011;10193;48.884;9.182;2023-04-15T14:31:22;0.85;;;0.82;;
20065;SDS011;10193;48.884;9.182;2023-04-15T14:33:49;1.02;;;0.85;;
20065;SDS011;10193;48.884;9.182;2023-04-15T14:36:15;1.00;;;0.90;;
20065;SDS011;10193;48.884;9.182;2023-04-15T14:38:42;0.77;;;0.77;;
20065;SDS011;10193;48.884;9.182;2023-04-15T14:41:08;1.10;;;0.70;;
20065;SDS011;10193;48.884;9.182;2023-04-15T14:43:36;1.63;;;0.95;;
20065;SDS011;10193;48.884;9.182;2023-04-15T14:46:04;1.10;;;1.00;;
20065;SDS011;10193;48.884;9.182;2023-04-15T14:48:32;1.23;;;0.93;;
20065;SDS011;10193;48.884;9.182;2023-04-15T14:50:59;1.08;;;1.05;;
20065;SDS011;10193;48.884;9.182;2023-04-15T14:53:26;1.10;;;1.10;;
20065;SDS011;10193;48.884;9.182;2023-04-15T14:55:52;1.40;;;1.30;;
20065;SDS011;10193;48.884;9.182;2023-04-15T14:58:19;1.23;;;1.13;;